Time;durP1;ratioP1;P1;durP2;ratioP2;P2;SDS_P1;SDS_P2;PMS_P1;PMS_P2;Temp;Humidity;BMP_temperature;BMP_pressure;BME280_temperature;BME280_humidity;BME280_pressure;Samples;Min_cycle;Max_cycle;Signal;HPM_P1;HPM_P2
2022/04/06 00:00:45;;;;;;;11.65;9.35;;;8.10;1.00;;;;;;4956687;28;20165;-85
2022/04/06 00:03:32;;;;;;;11.38;9.38;;;8.00;1.00;;;;;;4976419;28;20075;-87
2022/04/06 00:06:19;;;;;;;11.07;9.13;;;8.00;1.00;;;;;;4951115;28;20554;-85
2022/04/06 00:09:26;;;;;;;12.68;9.05;;;8.00;1.00;;;;;;4976828;28;20043;-84
2022/04/06 00:12:15;;;;;;;13.73;9.35;;;7.90;1.00;;;;;;4973717;28;20151;-86
2022/04/06 00:15:10;;;;;;;12.75;9.70;;;7.90;1.00;;;;;;4974496;28;20042;-86
2022/04/06 00:17:57;;;;;;;15.70;9.52;;;7.90;1.00;;;;;;4965009;28;20100;-84
2022/04/06 00:20:45;;;;;;;10.85;9.02;;;7.90;1.00;;;;;;4961460;28;20047;-85
2022/04/06 00:23:32;;;;;;;12.15;8.90;;;7.90;1.00;;;;;;4973368;28;20105;-86
2022/04/06 00:26:19;;;;;;;10.05;8.50;;;7.90;5.00;;;;;;4973753;28;20161;-84
2022/04/06 00:29:08;;;;;;;14.40;9.07;;;7.90;4.40;;;;;;4976091;28;20480;-85
2022/04/06 00:31:55;;;;;;;10.40;8.48;;;7.90;5.00;;;;;;4973127;28;20051;-85
2022/04/06 00:37:48;;;;;;;10.90;8.45;;;7.90;5.00;;;;;;4973883;28;20054;-84
2022/04/06 00:40:36;;;;;;;10.13;8.30;;;7.90;9.10;;;;;;4976822;28;20460;-85
2022/04/06 00:43:23;;;;;;;11.93;8.27;;;8.00;7.50;;;;;;4955563;28;20066;-84
2022/04/06 00:46:11;;;;;;;9.55;8.27;;;8.00;1.50;;;;;;4961028;28;20054;-85
2022/04/06 00:48:58;;;;;;;9.52;8.38;;;8.00;1.00;;;;;;4968288;28;20070;-86
2022/04/06 00:51:47;;;;;;;10.40;8.13;;;8.00;1.00;;;;;;4973680;28;20057;-84
2022/04/06 00:54:37;;;;;;;11.75;7.90;;;8.10;1.00;;;;;;4974555;28;20182;-84
2022/04/06 00:57:25;;;;;;;9.73;8.07;;;8.10;1.00;;;;;;4974199;28;20461;-86
2022/04/06 01:00:15;;;;;;;9.25;7.70;;;8.10;1.00;;;;;;4966343;28;20490;-86
2022/04/06 01:03:03;;;;;;;8.70;7.68;;;8.10;1.00;;;;;;4974377;28;20099;-86
2022/04/06 01:05:52;;;;;;;12.43;7.43;;;8.10;1.00;;;;;;4979323;28;20051;-84
2022/04/06 01:08:40;;;;;;;9.82;7.13;;;8.10;1.00;;;;;;4966596;28;20763;-86
2022/04/06 01:11:27;;;;;;;10.75;7.80;;;8.10;1.00;;;;;;4981062;28;20181;-85
2022/04/06 01:14:15;;;;;;;10.60;8.13;;;8.10;1.00;;;;;;4964710;28;20058;-85
2022/04/06 01:17:06;;;;;;;9.45;7.88;;;8.00;1.00;;;;;;4986747;28;20101;-85
2022/04/06 01:19:54;;;;;;;9.25;7.95;;;8.10;1.00;;;;;;4971281;28;20465;-88
2022/04/06 01:22:43;;;;;;;10.25;8.05;;;8.00;1.00;;;;;;4956946;28;20133;-84
2022/04/06 01:25:38;;;;;;;11.23;7.68;;;8.00;1.00;;;;;;4975574;28;20155;-85
2022/04/06 01:28:26;;;;;;;10.57;8.20;;;8.00;1.00;;;;;;4969742;28;20381;-86
2022/04/06 01:31:15;;;;;;;10.05;7.57;;;7.90;1.80;;;;;;4975525;28;20043;-87
2022/04/06 01:34:03;;;;;;;12.45;8.40;;;8.00;6.30;;;;;;4973663;28;20035;-87
2022/04/06 01:36:52;;;;;;;11.48;8.07;;;7.90;8.60;;;;;;4970585;28;20399;-83
2022/04/06 01:39:42;;;;;;;11.15;8.25;;;7.90;10.00;;;;;;4971034;28;20062;-85
2022/04/06 01:42:29;;;;;;;10.68;8.65;;;7.90;14.60;;;;;;4974200;28;20465;-85
2022/04/06 01:45:16;;;;;;;11.13;8.55;;;7.90;19.60;;;;;;4969887;28;20047;-83
2022/04/06 01:48:04;;;;;;;9.80;8.35;;;7.90;23.90;;;;;;4958514;28;20047;-86
2022/04/06 01:53:57;;;;;;;11.35;8.98;;;7.90;28.50;;;;;;4993935;28;20039;-85
2022/04/06 01:56:44;;;;;;;11.15;8.93;;;7.90;29.20;;;;;;4989580;28;20047;-86
2022/04/06 01:59:34;;;;;;;11.32;8.88;;;7.90;26.20;;;;;;4975683;28;20153;-84
2022/04/06 02:02:23;;;;;;;12.75;8.95;;;7.90;30.00;;;;;;4962504;28;20121;-86
2022/04/06 02:05:12;;;;;;;13.45;9.63;;;7.90;24.50;;;;;;4957058;28;20349;-85
2022/04/06 02:07:59;;;;;;;14.68;9.73;;;7.90;22.80;;;;;;4949780;28;20062;-85
2022/04/06 02:10:47;;;;;;;13.68;10.23;;;7.90;21.70;;;;;;4985963;28;20050;-85
2022/04/06 02:13:34;;;;;;;13.57;10.45;;;7.90;22.70;;;;;;4971465;28;20070;-84
2022/04/06 02:16:24;;;;;;;17.52;10.77;;;7.90;22.60;;;;;;4970229;28;20054;-86
2022/04/06 02:19:12;;;;;;;12.65;9.90;;;7.90;20.10;;;;;;4973708;28;20368;-84
2022/04/06 02:21:59;;;;;;;15.48;9.75;;;7.90;21.90;;;;;;4970647;28;20050;-84
2022/04/06 02:24:48;;;;;;;14.60;10.40;;;7.90;21.50;;;;;;4973197;28;20065;-83
2022/04/06 02:27:50;;;;;;;14.00;10.13;;;7.90;21.70;;;;;;4973122;28;20757;-84
2022/04/06 02:30:37;;;;;;;17.45;11.13;;;7.90;22.80;;;;;;4965438;28;20133;-85
2022/04/06 02:33:24;;;;;;;13.77;11.30;;;7.90;20.50;;;;;;4964768;28;20535;-83
2022/04/06 02:36:14;;;;;;;17.02;11.30;;;7.90;21.50;;;;;;4977596;28;20039;-83
2022/04/06 02:39:01;;;;;;;15.25;11.77;;;7.90;25.80;;;;;;4952557;28;20048;-84
2022/04/06 02:41:49;;;;;;;15.05;10.25;;;7.90;26.50;;;;;;4960149;28;20105;-83
2022/04/06 02:44:36;;;;;;;15.82;10.95;;;7.90;28.00;;;;;;4969936;28;20114;-83
2022/04/06 02:47:28;;;;;;;14.05;10.70;;;7.90;28.30;;;;;;4960032;28;20128;-82
2022/04/06 02:50:15;;;;;;;16.75;10.75;;;8.00;23.80;;;;;;4971164;28;20047;-84
2022/04/06 02:53:02;;;;;;;12.75;10.77;;;8.00;19.10;;;;;;4974349;28;20055;-84
2022/04/06 02:55:49;;;;;;;16.92;11.77;;;8.00;20.00;;;;;;4977989;28;20352;-84
2022/04/06 02:58:37;;;;;;;16.17;9.85;;;8.10;18.80;;;;;;4973295;28;20143;-85
2022/04/06 03:01:24;;;;;;;15.70;11.48;;;8.10;12.30;;;;;;4970440;28;20055;-84
2022/04/06 03:04:11;;;;;;;12.48;10.38;;;8.10;10.80;;;;;;4975605;28;20050;-84
2022/04/06 03:06:58;;;;;;;16.23;10.95;;;8.10;7.40;;;;;;4973195;28;20043;-84
2022/04/06 03:09:46;;;;;;;19.90;10.77;;;8.10;7.00;;;;;;4968211;28;20055;-83
2022/04/06 03:12:33;;;;;;;16.35;10.63;;;8.10;5.20;;;;;;4970857;28;20050;-84
2022/04/06 03:15:21;;;;;;;15.68;11.05;;;8.00;10.60;;;;;;4957208;28;20124;-82
2022/04/06 03:18:08;;;;;;;15.45;11.60;;;8.00;13.70;;;;;;4972234;28;20100;-85
2022/04/06 03:20:58;;;;;;;18.13;12.07;;;8.00;16.70;;;;;;4960221;28;20539;-83
2022/04/06 03:23:45;;;;;;;16.17;11.85;;;8.00;19.40;;;;;;4962864;28;20114;-87
2022/04/06 03:26:32;;;;;;;16.00;12.32;;;7.90;20.30;;;;;;4975889;28;20042;-84
2022/04/06 03:29:19;;;;;;;15.50;12.23;;;7.90;20.90;;;;;;4953369;29;20043;-86
2022/04/06 03:32:08;;;;;;;18.02;12.00;;;7.90;22.10;;;;;;4975223;28;20157;-87
2022/04/06 03:34:55;;;;;;;18.42;11.70;;;7.90;20.40;;;;;;4981622;28;20102;-84
2022/04/06 03:37:42;;;;;;;19.17;12.10;;;7.90;21.90;;;;;;4966990;28;20090;-84
2022/04/06 03:40:30;;;;;;;17.90;12.23;;;7.90;24.00;;;;;;4963540;28;20051;-84
2022/04/06 03:43:17;;;;;;;18.60;12.68;;;7.80;26.20;;;;;;4975685;28;20105;-86
2022/04/06 03:46:05;;;;;;;17.10;11.52;;;7.80;25.90;;;;;;4964294;28;20097;-84
2022/04/06 03:48:52;;;;;;;15.45;12.10;;;7.90;22.10;;;;;;4976352;28;20130;-86
2022/04/06 03:51:39;;;;;;;17.77;11.95;;;7.90;24.20;;;;;;4967656;28;20117;-84
2022/04/06 03:54:26;;;;;;;15.52;11.85;;;7.90;24.10;;;;;;4977885;28;20125;-82
2022/04/06 03:57:14;;;;;;;17.60;12.35;;;7.90;23.00;;;;;;4978173;28;20055;-84
2022/04/06 04:00:04;;;;;;;15.75;11.93;;;7.90;22.70;;;;;;4956794;28;20063;-83
2022/04/06 04:02:51;;;;;;;20.60;13.63;;;7.90;26.50;;;;;;4961415;28;20062;-84
2022/04/06 04:05:40;;;;;;;18.63;13.48;;;7.90;26.50;;;;;;4977391;28;20085;-84
2022/04/06 04:08:28;;;;;;;18.23;13.27;;;7.90;28.30;;;;;;4975147;28;20110;-86
2022/04/06 04:11:17;;;;;;;20.23;13.57;;;7.90;26.20;;;;;;4958331;28;20054;-85
2022/04/06 04:14:07;;;;;;;16.27;13.10;;;7.90;25.70;;;;;;4977230;28;20046;-84
2022/04/06 04:16:56;;;;;;;17.55;12.55;;;7.80;29.10;;;;;;4974420;28;20059;-86
2022/04/06 04:19:47;;;;;;;17.58;12.90;;;7.80;31.60;;;;;;4970262;28;20044;-86
2022/04/06 04:22:35;;;;;;;17.65;13.20;;;7.90;29.30;;;;;;4970487;28;20059;-86
2022/04/06 04:25:22;;;;;;;15.45;12.60;;;7.90;29.70;;;;;;4974685;28;20079;-85
2022/04/06 04:28:10;;;;;;;17.35;12.55;;;7.90;30.20;;;;;;4989709;28;20125;-85
2022/04/06 04:30:57;;;;;;;18.85;13.32;;;7.90;30.90;;;;;;4979888;28;20054;-86
2022/04/06 04:33:44;;;;;;;18.50;13.10;;;7.90;33.20;;;;;;4980412;28;20464;-84
2022/04/06 04:36:32;;;;;;;18.60;13.35;;;7.80;34.70;;;;;;4976481;28;20058;-87
2022/04/06 04:39:20;;;;;;;18.20;13.57;;;7.90;30.00;;;;;;4972648;28;20055;-85
2022/04/06 04:42:07;;;;;;;17.17;12.73;;;7.80;37.40;;;;;;4975084;28;20110;-87
2022/04/06 04:44:54;;;;;;;15.38;12.20;;;7.80;40.50;;;;;;4976696;28;20054;-85
2022/04/06 04:47:42;;;;;;;14.65;11.77;;;7.80;39.40;;;;;;4961958;28;20054;-85
2022/04/06 04:50:29;;;;;;;16.30;12.45;;;7.80;40.80;;;;;;4972495;28;20166;-86
2022/04/06 04:53:16;;;;;;;18.52;12.05;;;7.80;42.50;;;;;;4976659;28;20480;-85
2022/04/06 04:56:05;;;;;;;16.13;13.07;;;7.80;43.50;;;;;;4977354;28;20043;-86
2022/04/06 04:58:52;;;;;;;17.27;12.88;;;7.90;41.90;;;;;;4965065;28;20055;-87
2022/04/06 05:01:39;;;;;;;14.50;11.63;;;7.80;43.10;;;;;;4973601;28;20058;-88
2022/04/06 05:04:29;;;;;;;15.02;11.85;;;7.90;43.40;;;;;;4976688;28;20061;-86
2022/04/06 05:07:16;;;;;;;14.25;12.38;;;7.80;46.50;;;;;;4967467;28;20416;-87
2022/04/06 05:10:10;;;;;;;14.30;11.57;;;7.90;43.70;;;;;;4992008;28;20082;-87
2022/04/06 05:12:57;;;;;;;15.48;12.07;;;7.90;43.60;;;;;;4960446;28;20050;-88
2022/04/06 05:15:45;;;;;;;17.13;12.65;;;7.80;46.40;;;;;;4985034;28;20051;-87
2022/04/06 05:18:33;;;;;;;19.52;12.10;;;7.80;47.10;;;;;;4975333;28;20105;-87
2022/04/06 05:21:21;;;;;;;15.43;12.05;;;7.80;48.30;;;;;;4962784;28;20473;-87
2022/04/06 05:24:08;;;;;;;15.32;11.73;;;7.90;49.10;;;;;;4975030;28;20075;-85
2022/04/06 05:27:00;;;;;;;15.77;12.65;;;7.80;48.70;;;;;;4968524;28;20046;-86
2022/04/06 05:29:47;;;;;;;15.95;11.60;;;7.90;49.50;;;;;;4962937;28;20078;-86
2022/04/06 05:32:37;;;;;;;16.58;12.60;;;7.80;51.30;;;;;;4975894;28;20046;-87
2022/04/06 05:35:26;;;;;;;12.35;10.90;;;7.90;49.90;;;;;;4956153;28;20047;-85
2022/04/06 05:38:14;;;;;;;12.93;11.50;;;7.90;49.30;;;;;;4961030;28;20061;-86
2022/04/06 05:41:02;;;;;;;14.43;10.73;;;7.90;51.60;;;;;;4973372;28;20102;-86
2022/04/06 05:43:49;;;;;;;15.90;11.15;;;7.90;51.10;;;;;;4968580;28;20408;-87
2022/04/06 05:46:49;;;;;;;14.57;11.55;;;7.90;51.60;;;;;;4967737;28;20137;-85
2022/04/06 05:49:36;;;;;;;15.70;11.90;;;8.00;50.40;;;;;;4970471;28;20043;-87
2022/04/06 05:52:26;;;;;;;15.05;10.60;;;7.90;47.80;;;;;;4954379;28;20082;-84
2022/04/06 05:55:13;;;;;;;16.70;10.57;;;8.00;48.70;;;;;;4969562;28;20069;-85
2022/04/06 05:58:00;;;;;;;13.57;11.15;;;8.00;47.90;;;;;;4959485;28;20054;-86
2022/04/06 06:00:47;;;;;;;14.07;10.93;;;8.00;48.50;;;;;;4973193;28;20057;-84
2022/04/06 06:03:35;;;;;;;13.90;11.05;;;8.00;47.20;;;;;;4971731;28;20050;-84
2022/04/06 06:06:22;;;;;;;17.00;11.25;;;8.00;49.60;;;;;;4958931;28;20365;-85
2022/04/06 06:09:10;;;;;;;17.02;11.48;;;8.10;46.80;;;;;;4972226;28;20094;-85
2022/04/06 06:11:58;;;;;;;13.13;10.07;;;8.10;43.00;;;;;;4956427;28;20050;-85
2022/04/06 06:14:45;;;;;;;14.75;10.57;;;8.20;38.40;;;;;;4971756;28;20484;-85
2022/04/06 06:17:40;;;;;;;13.27;10.50;;;8.20;32.40;;;;;;4956984;28;20058;-86
2022/04/06 06:20:27;;;;;;;15.05;10.52;;;8.20;35.00;;;;;;4971383;28;20089;-83
2022/04/06 06:23:14;;;;;;;10.43;9.07;;;8.30;30.00;;;;;;4952809;28;20527;-84
2022/04/06 06:26:02;;;;;;;11.13;8.88;;;8.30;22.10;;;;;;4963261;28;20053;-84
2022/04/06 06:28:49;;;;;;;11.30;9.10;;;8.30;22.60;;;;;;4961218;28;20057;-83
2022/04/06 06:31:36;;;;;;;10.25;9.05;;;8.40;20.60;;;;;;4971471;28;20047;-82
2022/04/06 06:34:26;;;;;;;11.77;8.77;;;8.40;20.10;;;;;;4958775;28;20065;-83
2022/04/06 06:37:16;;;;;;;12.35;8.98;;;8.30;17.80;;;;;;4973186;28;20050;-83
2022/04/06 06:40:04;;;;;;;11.07;9.23;;;8.30;24.50;;;;;;4972956;28;21238;-82
2022/04/06 06:42:55;;;;;;;12.68;9.27;;;8.30;22.50;;;;;;4952548;28;20049;-81
2022/04/06 06:45:42;;;;;;;10.50;8.10;;;8.40;21.20;;;;;;4967617;28;20468;-81
2022/04/06 06:48:30;;;;;;;13.40;8.43;;;8.40;16.60;;;;;;4970309;28;20061;-83
2022/04/06 06:51:17;;;;;;;9.90;8.13;;;8.40;16.40;;;;;;4972847;28;20062;-82
2022/04/06 06:54:05;;;;;;;8.43;7.10;;;8.40;13.80;;;;;;4971209;28;20577;-84
2022/04/06 06:56:52;;;;;;;9.43;7.28;;;8.50;15.30;;;;;;4967121;28;20050;-84
2022/04/06 06:59:41;;;;;;;9.05;7.03;;;8.50;1.00;;;;;;4969952;28;20043;-84
2022/04/06 07:02:31;;;;;;;10.05;7.00;;;8.50;1.00;;;;;;4969623;28;20158;-82
2022/04/06 07:05:18;;;;;;;8.23;7.05;;;8.60;1.00;;;;;;4972765;28;20161;-82
2022/04/06 07:08:06;;;;;;;7.82;7.03;;;8.70;1.00;;;;;;4956956;28;20055;-90
2022/04/06 07:10:55;;;;;;;8.18;6.45;;;8.70;1.00;;;;;;4976175;28;20054;-93
2022/04/06 07:13:43;;;;;;;10.77;6.30;;;8.70;1.00;;;;;;4969868;28;20055;-90
2022/04/06 07:16:31;;;;;;;7.63;6.28;;;8.70;1.00;;;;;;4974560;28;20059;-88
2022/04/06 07:19:19;;;;;;;7.53;6.30;;;8.80;1.00;;;;;;4960993;28;20074;-93
2022/04/06 07:22:09;;;;;;;8.95;5.75;;;8.80;1.00;;;;;;4962318;28;20262;-90
2022/04/06 07:24:59;;;;;;;7.85;6.47;;;8.80;1.00;;;;;;4971063;28;20051;-91
2022/04/06 07:27:51;;;;;;;8.23;5.97;;;8.90;1.00;;;;;;4973811;28;20055;-92
2022/04/06 07:30:39;;;;;;;7.10;6.15;;;8.90;1.00;;;;;;4972708;28;20599;-94
2022/04/06 07:33:26;;;;;;;6.30;5.53;;;9.00;1.00;;;;;;4958227;28;20165;-86
2022/04/06 07:36:17;;;;;;;8.98;6.22;;;9.00;1.00;;;;;;4961103;28;20055;-89
2022/04/06 07:39:05;;;;;;;6.75;5.78;;;9.00;1.00;;;;;;4972017;28;20121;-88
2022/04/06 07:41:56;;;;;;;8.25;5.75;;;9.00;1.00;;;;;;4958932;28;20851;-91
2022/04/06 07:44:47;;;;;;;7.35;5.90;;;9.10;1.00;;;;;;4963622;28;20055;-89
2022/04/06 07:47:40;;;;;;;6.88;5.35;;;9.20;1.00;;;;;;4971112;28;20380;-91
2022/04/06 07:50:27;;;;;;;;;;;9.30;1.00;;;;;;4973620;28;20050;-90
2022/04/06 07:53:17;;;;;;;10.23;6.22;;;9.30;1.00;;;;;;4958236;28;19930;-90
2022/04/06 07:56:06;;;;;;;6.30;5.43;;;9.50;1.00;;;;;;4972433;28;20074;-90
2022/04/06 07:58:54;;;;;;;7.55;5.35;;;9.60;1.00;;;;;;4972241;28;20065;-87
2022/04/06 08:01:42;;;;;;;6.35;4.50;;;9.70;99.90;;;;;;4953356;28;20047;-87
2022/04/06 08:04:33;;;;;;;7.45;4.70;;;9.80;99.90;;;;;;4972184;28;20058;-86
2022/04/06 08:07:20;;;;;;;5.65;4.20;;;9.90;99.90;;;;;;4975597;28;20174;-87
2022/04/06 08:10:09;;;;;;;5.35;4.50;;;9.90;99.90;;;;;;4965703;28;20046;-88
2022/04/06 08:12:57;;;;;;;4.18;3.10;;;10.10;99.90;;;;;;4974405;28;20046;-90
2022/04/06 08:15:45;;;;;;;4.70;3.05;;;10.00;1.00;;;;;;4961623;28;20544;-88
2022/04/06 08:18:36;;;;;;;3.25;3.03;;;10.10;1.00;;;;;;4958654;28;20054;-89
2022/04/06 08:21:28;;;;;;;4.95;2.95;;;10.20;1.00;;;;;;4970485;28;20078;-89
2022/04/06 08:24:19;;;;;;;2.55;2.30;;;10.20;99.90;;;;;;4971265;28;20131;-88
2022/04/06 08:27:07;;;;;;;2.50;2.30;;;10.10;99.90;;;;;;4972449;28;20058;-90
2022/04/06 08:30:10;;;;;;;5.80;2.15;;;10.30;99.90;;;;;;4975676;28;20185;-89
2022/04/06 08:33:31;;;;;;;3.42;1.75;;;10.70;1.00;;;;;;4880260;29;20428;-90
2022/04/06 08:36:36;;;;;;;4.20;2.33;;;11.00;99.90;;;;;;4862225;29;20085;-88
2022/04/06 08:39:25;;;;;;;2.30;2.07;;;11.00;99.90;;;;;;4864580;29;20200;-88
2022/04/06 08:42:17;;;;;;;2.20;1.92;;;11.20;1.00;;;;;;4879256;29;20045;-88
2022/04/06 08:45:22;;;;;;;2.90;2.00;;;11.50;99.90;;;;;;4871994;29;20052;-91
2022/04/06 08:48:13;;;;;;;2.55;1.60;;;11.60;4.00;;;;;;4872469;29;20063;-90
2022/04/06 08:51:12;;;;;;;;;;;11.90;1.00;;;;;;4879606;29;20101;-89
2022/04/06 08:54:05;;;;;;;3.85;1.83;;;12.00;99.90;;;;;;4880976;29;20295;-92
2022/04/06 08:56:55;;;;;;;1.40;1.30;;;11.70;99.90;;;;;;4905502;28;20546;-90
2022/04/06 08:59:43;;;;;;;5.38;1.95;;;11.40;92.40;;;;;;4973042;28;20054;-89
2022/04/06 09:02:33;;;;;;;2.20;1.77;;;11.30;99.90;;;;;;4974562;28;20054;-87
2022/04/06 09:05:26;;;;;;;4.13;1.83;;;11.60;99.90;;;;;;4966625;28;20047;-90
2022/04/06 09:08:16;;;;;;;2.15;1.95;;;11.40;99.90;;;;;;4959393;28;20038;-89
2022/04/06 09:11:15;;;;;;;2.67;1.60;;;11.30;1.00;;;;;;4958640;28;20039;-89
2022/04/06 09:14:08;;;;;;;2.95;1.70;;;11.70;1.00;;;;;;4979237;28;20051;-89
2022/04/06 09:17:13;;;;;;;2.03;1.75;;;11.50;99.90;;;;;;4972122;28;20121;-91
2022/04/06 09:20:01;;;;;;;2.20;1.95;;;11.30;1.00;;;;;;4961590;28;20102;-88
2022/04/06 09:22:49;;;;;;;3.15;1.58;;;11.60;99.90;;;;;;4982604;28;20043;-89
2022/04/06 09:25:42;;;;;;;4.40;1.50;;;12.10;99.90;;;;;;4978533;28;20039;-89
2022/04/06 09:28:30;;;;;;;2.53;1.23;;;12.70;99.90;;;;;;4972971;28;20046;-90
2022/04/06 09:31:22;;;;;;;1.20;1.10;;;13.00;32.20;;;;;;4980165;28;20238;-92
2022/04/06 09:34:12;;;;;;;15.57;4.85;;;12.70;1.00;;;;;;4957160;28;20043;-90
2022/04/06 09:37:21;;;;;;;3.92;1.80;;;12.30;1.00;;;;;;4961875;28;20042;-89
2022/04/06 09:40:12;;;;;;;3.13;1.20;;;12.30;1.00;;;;;;4960998;28;20058;-90
2022/04/06 09:43:01;;;;;;;3.50;1.20;;;12.40;1.00;;;;;;4956993;28;20093;-90
2022/04/06 09:48:57;;;;;;;2.50;1.35;;;12.50;1.00;;;;;;4971264;28;20050;-90
2022/04/06 09:51:52;;;;;;;2.60;1.20;;;12.80;1.00;;;;;;4981464;28;20752;-87
2022/04/06 09:54:44;;;;;;;1.40;1.00;;;13.30;99.90;;;;;;4960320;28;20042;-89
2022/04/06 09:57:39;;;;;;;0.95;0.95;;;13.30;99.90;;;;;;4966184;28;20082;-90
2022/04/06 10:00:37;;;;;;;1.83;1.20;;;12.90;99.90;;;;;;4980641;28;20057;-93
2022/04/06 10:03:27;;;;;;;2.17;1.17;;;12.90;99.90;;;;;;4978354;28;20050;-91
2022/04/06 10:06:19;;;;;;;1.48;1.20;;;12.90;99.90;;;;;;4967534;28;20359;-92
2022/04/06 10:09:14;;;;;;;1.92;1.00;;;13.10;99.90;;;;;;4961956;28;20111;-91
2022/04/06 10:12:05;;;;;;;0.80;0.80;;;13.30;99.90;;;;;;4963934;28;20047;-91
2022/04/06 10:15:52;;;;;;;2.40;1.20;;;12.90;99.90;;;;;;4971473;28;20051;-91
2022/04/06 10:18:50;;;;;;;5.85;1.30;;;12.70;99.90;;;;;;4971614;28;20047;-87
2022/04/06 10:25:14;;;;;;;2.22;1.27;;;13.30;50.50;;;;;;4969304;28;20607;-90
2022/04/06 10:28:11;;;;;;;1.33;1.20;;;13.20;18.20;;;;;;4967503;28;20098;-90
2022/04/06 10:31:27;;;;;;;5.47;1.10;;;13.20;15.40;;;;;;4960287;28;20050;-88
2022/04/06 10:34:24;;;;;;;0.82;0.82;;;13.60;24.90;;;;;;4962789;28;20039;-91
2022/04/06 10:37:16;;;;;;;1.77;1.10;;;15.40;1.00;;;;;;4953487;28;20051;-89
2022/04/06 10:40:03;;;;;;;1.65;1.00;;;15.00;1.00;;;;;;4960947;28;20050;-90
2022/04/06 10:42:51;;;;;;;2.65;0.80;;;14.00;1.00;;;;;;4968196;28;20066;-91
2022/04/06 10:45:42;;;;;;;1.25;0.80;;;15.20;1.00;;;;;;4960983;28;20051;-89
2022/04/06 10:48:29;;;;;;;2.70;0.80;;;16.10;99.90;;;;;;4950243;28;20087;-88
2022/04/06 10:51:47;;;;;;;1.55;0.70;;;16.50;99.90;;;;;;4968625;28;20042;-90
2022/04/06 10:54:41;;;;;;;1.98;0.90;;;17.00;99.90;;;;;;4963132;28;20153;-89
2022/04/06 10:57:55;;;;;;;0.88;0.70;;;17.40;99.90;;;;;;4967725;28;20066;-89
2022/04/06 11:00:45;;;;;;;0.80;0.80;;;18.40;99.90;;;;;;4953663;28;20040;-90
2022/04/06 11:03:43;;;;;;;1.33;0.68;;;17.80;99.90;;;;;;4973684;28;20058;-91
2022/04/06 11:13:02;;;;;;;0.93;0.60;;;17.10;99.90;;;;;;4971846;28;20070;-89
2022/04/06 11:15:51;;;;;;;3.08;1.00;;;16.60;99.90;;;;;;4955564;28;20433;-88
2022/04/06 11:18:57;;;;;;;0.68;0.68;;;15.70;99.90;;;;;;4972682;28;20061;-89
2022/04/06 11:21:58;;;;;;;1.38;0.80;;;16.50;99.90;;;;;;4960477;28;20452;-88
2022/04/06 11:24:47;;;;;;;4.43;0.90;;;16.50;99.90;;;;;;4972674;28;20464;-92
2022/04/06 11:27:39;;;;;;;1.00;0.90;;;16.50;99.90;;;;;;4959018;28;20042;-89
2022/04/06 11:30:32;;;;;;;1.20;0.90;;;16.60;99.90;;;;;;4977006;28;20039;-89
2022/04/06 11:33:38;;;;;;;1.98;0.95;;;16.40;99.90;;;;;;4967330;28;20057;-91
2022/04/06 11:36:29;;;;;;;2.22;1.40;;;15.60;99.90;;;;;;4968496;28;20046;-90
2022/04/06 11:39:17;;;;;;;4.50;0.90;;;15.40;99.90;;;;;;4967577;28;20054;-88
2022/04/06 11:42:14;;;;;;;0.80;0.80;;;14.90;99.90;;;;;;4957117;28;20070;-90
2022/04/06 11:45:05;;;;;;;0.63;0.60;;;14.60;99.90;;;;;;4967735;28;20089;-91
2022/04/06 11:47:57;;;;;;;0.70;0.70;;;14.60;99.90;;;;;;4977583;28;20046;-88
2022/04/06 11:50:49;;;;;;;1.23;0.88;;;14.90;99.90;;;;;;4975341;28;20070;-89
2022/04/06 11:53:39;;;;;;;1.30;0.90;;;15.20;99.90;;;;;;4974067;28;20426;-91
2022/04/06 11:56:32;;;;;;;2.42;0.63;;;15.60;99.90;;;;;;4988359;28;20053;-92
2022/04/06 11:59:23;;;;;;;0.70;0.70;;;17.10;99.90;;;;;;4991025;28;20102;-89
2022/04/06 12:02:12;;;;;;;0.70;0.60;;;18.40;99.90;;;;;;4971380;28;20106;-89
2022/04/06 12:05:06;;;;;;;3.28;0.43;;;19.30;99.90;;;;;;4981880;28;20062;-88
2022/04/06 12:08:13;;;;;;;1.90;0.70;;;19.00;99.90;;;;;;4982350;28;20061;-89
2022/04/06 12:11:07;;;;;;;0.63;0.63;;;18.60;99.90;;;;;;4986573;28;20042;-91
2022/04/06 12:13:58;;;;;;;0.73;0.73;;;18.60;99.90;;;;;;4978264;28;20047;-88
2022/04/06 12:16:49;;;;;;;1.80;0.50;;;20.10;93.60;;;;;;4976792;28;20050;-90
2022/04/06 12:19:38;;;;;;;0.57;0.40;;;20.70;70.40;;;;;;4980627;28;20429;-90
2022/04/06 12:22:29;;;;;;;0.80;0.60;;;21.90;75.00;;;;;;4973349;28;20062;-87
2022/04/06 12:25:34;;;;;;;2.40;0.80;;;22.10;49.40;;;;;;4959642;28;20094;-90
2022/04/06 12:28:25;;;;;;;1.40;0.73;;;21.30;24.60;;;;;;4979985;28;20129;-88
2022/04/06 12:31:13;;;;;;;0.93;0.60;;;20.90;25.60;;;;;;4978291;28;20067;-90
2022/04/06 12:34:03;;;;;;;0.98;0.90;;;20.40;23.40;;;;;;4981637;28;20038;-91
2022/04/06 12:36:54;;;;;;;0.68;0.68;;;20.90;24.80;;;;;;4970957;28;20046;-92
2022/04/06 12:39:55;;;;;;;0.50;0.50;;;21.30;20.90;;;;;;4966482;28;20126;-88
2022/04/06 12:42:45;;;;;;;0.90;0.50;;;20.40;17.20;;;;;;4977647;28;20055;-90
2022/04/06 12:45:47;;;;;;;1.40;0.60;;;19.90;13.50;;;;;;4974255;28;20061;-90
2022/04/06 12:48:37;;;;;;;0.52;0.50;;;19.30;19.50;;;;;;4963792;28;20050;-91
2022/04/06 12:51:33;;;;;;;1.65;0.60;;;18.20;27.60;;;;;;4966225;28;20051;-90
2022/04/06 12:54:21;;;;;;;1.52;0.50;;;17.90;21.40;;;;;;4972107;28;20427;-90
2022/04/06 12:57:27;;;;;;;1.38;0.75;;;17.50;24.90;;;;;;4977528;28;20038;-83
2022/04/06 13:00:18;;;;;;;1.30;0.63;;;17.20;32.30;;;;;;4977901;28;20058;-92
2022/04/06 13:03:08;;;;;;;1.60;0.60;;;18.70;30.30;;;;;;4969062;28;20062;-88
2022/04/06 13:06:00;;;;;;;0.60;0.45;;;18.80;22.60;;;;;;4983381;28;20070;-91
2022/04/06 13:08:55;;;;;;;1.58;0.70;;;17.80;23.10;;;;;;4981544;28;20437;-89
2022/04/06 13:12:03;;;;;;;1.00;0.70;;;16.60;35.00;;;;;;4976363;28;20058;-88
2022/04/06 13:14:51;;;;;;;1.00;0.90;;;16.30;44.20;;;;;;4977291;28;20051;-88
2022/04/06 13:17:43;;;;;;;0.77;0.68;;;16.50;46.50;;;;;;4967461;28;20190;-91
2022/04/06 13:20:32;;;;;;;0.90;0.77;;;16.30;47.00;;;;;;4965012;28;20042;-90
2022/04/06 13:23:22;;;;;;;1.40;0.80;;;16.10;52.40;;;;;;4976985;28;20484;-87
2022/04/06 13:26:10;;;;;;;1.02;0.85;;;15.90;57.30;;;;;;4968668;28;20051;-90
2022/04/06 13:29:01;;;;;;;1.20;1.00;;;15.70;62.30;;;;;;4965748;28;20046;-87
2022/04/06 13:31:49;;;;;;;1.10;1.00;;;15.50;68.20;;;;;;4958888;28;20046;-90
2022/04/06 13:34:37;;;;;;;0.70;0.70;;;16.00;90.00;;;;;;4979795;28;20057;-90
2022/04/06 13:37:27;;;;;;;0.98;0.90;;;16.70;66.60;;;;;;4984786;28;20126;-90
2022/04/06 13:40:16;;;;;;;0.88;0.70;;;16.30;70.20;;;;;;4975334;28;20110;-91
2022/04/06 13:43:32;;;;;;;1.25;0.77;;;16.40;61.10;;;;;;4973131;28;20054;-91
2022/04/06 13:46:38;;;;;;;2.72;1.20;;;16.90;59.70;;;;;;4959698;28;20102;-88
2022/04/06 13:49:34;;;;;;;2.67;0.85;;;18.80;49.30;;;;;;4975971;28;20051;-92
2022/04/06 13:52:22;;;;;;;1.10;0.70;;;20.40;37.00;;;;;;4961502;28;20339;-91
2022/04/06 13:55:21;;;;;;;1.48;0.90;;;21.80;14.70;;;;;;4960594;28;20612;-91
2022/04/06 13:58:25;;;;;;;6.53;3.63;;;22.00;1.00;;;;;;4964351;28;20477;-93
2022/04/06 14:01:14;;;;;;;0.80;0.80;;;20.40;1.00;;;;;;4955379;28;20496;-90
2022/04/06 14:04:05;;;;;;;3.90;0.90;;;18.80;5.40;;;;;;4965311;28;20046;-88
2022/04/06 14:06:53;;;;;;;0.80;0.80;;;19.00;8.10;;;;;;4961869;28;20046;-89
2022/04/06 14:09:41;;;;;;;1.35;0.82;;;18.70;10.00;;;;;;4972726;28;20059;-90
2022/04/06 14:12:28;;;;;;;2.97;1.05;;;17.40;13.30;;;;;;4975917;28;20054;-89
2022/04/06 14:15:17;;;;;;;1.02;0.80;;;16.40;28.20;;;;;;4976752;28;20051;-90
2022/04/06 14:18:07;;;;;;;1.00;0.98;;;15.80;49.20;;;;;;4964223;28;20053;-88
2022/04/06 14:20:57;;;;;;;0.95;0.80;;;16.00;58.90;;;;;;4981202;28;20170;-90
2022/04/06 14:23:44;;;;;;;1.02;0.90;;;17.00;57.80;;;;;;4974864;28;20039;-87
2022/04/06 14:26:36;;;;;;;0.70;0.63;;;17.20;47.80;;;;;;4966202;28;20050;-89
2022/04/06 14:29:25;;;;;;;1.65;0.90;;;16.20;49.90;;;;;;4981057;28;20070;-91
2022/04/06 14:32:14;;;;;;;1.00;0.90;;;15.70;66.50;;;;;;4961134;28;20070;-89
2022/04/06 14:35:03;;;;;;;1.20;0.93;;;16.60;66.50;;;;;;4980482;28;20047;-89
2022/04/06 14:37:51;;;;;;;2.75;0.80;;;17.20;63.30;;;;;;4962211;28;20065;-87
2022/04/06 14:40:41;;;;;;;1.77;1.13;;;17.10;59.20;;;;;;4963128;28;20038;-90
2022/04/06 14:43:29;;;;;;;1.50;0.98;;;16.70;68.80;;;;;;4977349;28;20051;-90
2022/04/06 14:46:20;;;;;;;4.90;1.17;;;16.70;65.30;;;;;;4974886;28;20062;-88
2022/04/06 14:49:09;;;;;;;1.50;1.13;;;16.20;71.80;;;;;;4974726;28;20055;-91
2022/04/06 14:51:56;;;;;;;1.10;1.00;;;15.50;85.10;;;;;;4964916;28;20061;-87
2022/04/06 14:54:49;;;;;;;2.28;1.00;;;14.90;99.90;;;;;;4960674;28;20062;-88
2022/04/06 14:57:39;;;;;;;1.42;1.10;;;14.70;99.90;;;;;;4963458;28;20185;-90
2022/04/06 15:00:29;;;;;;;3.88;1.35;;;14.90;99.90;;;;;;4974607;28;20061;-91
2022/04/06 15:03:17;;;;;;;2.08;1.10;;;15.70;99.90;;;;;;4962333;28;20074;-90
2022/04/06 15:06:06;;;;;;;2.65;0.90;;;15.60;99.90;;;;;;4959507;28;20063;-90
2022/04/06 15:08:54;;;;;;;4.90;1.08;;;15.00;99.90;;;;;;4976437;28;20109;-90